sensor_id;sensor_type;location;lat;lon;timestamp;pressure;altitude;pressure_sealevel;temperature
82636;BMP280;72317;37.280;-121.948;2024-01-11T00:23:21;95487.16;;;12.40
82636;BMP280;72317;37.280;-121.948;2024-01-11T00:25:47;95711.03;;;12.39
82636;BMP280;72317;37.280;-121.948;2024-01-11T00:28:13;95832.75;;;12.30
82636;BMP280;72317;37.280;-121.948;2024-01-11T00:30:39;95924.66;;;12.31
82636;BMP280;72317;37.280;-121.948;2024-01-11T00:33:06;95983.38;;;12.12
82636;BMP280;72317;37.280;-121.948;2024-01-11T00:35:32;96006.06;;;12.11
82636;BMP280;72317;37.280;-121.948;2024-01-11T00:37:58;96023.59;;;12.12
82636;BMP280;72317;37.280;-121.948;2024-01-11T00:40:24;96026.31;;;12.18
82636;BMP280;72317;37.280;-121.948;2024-01-11T00:42:51;96063.13;;;12.17
82636;BMP280;72317;37.280;-121.948;2024-01-11T00:45:17;96092.63;;;12.17
82636;BMP280;72317;37.280;-121.948;2024-01-11T00:47:43;96133.56;;;12.12
82636;BMP280;72317;37.280;-121.948;2024-01-11T00:50:10;96158.63;;;12.03
82636;BMP280;72317;37.280;-121.948;2024-01-11T00:52:36;96147.69;;;12.07
82636;BMP280;72317;37.280;-121.948;2024-01-11T00:55:02;96141.34;;;12.10
82636;BMP280;72317;37.280;-121.948;2024-01-11T00:57:28;96134.31;;;12.13
82636;BMP280;72317;37.280;-121.948;2024-01-11T00:59:54;96134.31;;;12.18
82636;BMP280;72317;37.280;-121.948;2024-01-11T01:02:21;96157.00;;;12.17
82636;BMP280;72317;37.280;-121.948;2024-01-11T01:04:47;96178.69;;;12.14
82636;BMP280;72317;37.280;-121.948;2024-01-11T01:07:13;96193.78;;;12.11
82636;BMP280;72317;37.280;-121.948;2024-01-11T01:09:39;96224.25;;;12.08
82636;BMP280;72317;37.280;-121.948;2024-01-11T01:12:06;96286.69;;;12.14
82636;BMP280;72317;37.280;-121.948;2024-01-11T01:14:32;96338.09;;;12.07
82636;BMP280;72317;37.280;-121.948;2024-01-11T01:16:59;96390.25;;;12.06
82636;BMP280;72317;37.280;-121.948;2024-01-11T01:19:25;96471.22;;;12.10
82636;BMP280;72317;37.280;-121.948;2024-01-11T01:21:51;96543.63;;;12.10
82636;BMP280;72317;37.280;-121.948;2024-01-11T01:24:17;96621.81;;;12.03
82636;BMP280;72317;37.280;-121.948;2024-01-11T01:26:43;96674.47;;;12.00
82636;BMP280;72317;37.280;-121.948;2024-01-11T01:29:10;96735.56;;;12.11
82636;BMP280;72317;37.280;-121.948;2024-01-11T01:31:36;96821.03;;;12.03
82636;BMP280;72317;37.280;-121.948;2024-01-11T01:37:25;96883.44;;;11.89
82636;BMP280;72317;37.280;-121.948;2024-01-11T01:39:51;96905.19;;;11.91
82636;BMP280;72317;37.280;-121.948;2024-01-11T01:42:17;96911.19;;;11.86
82636;BMP280;72317;37.280;-121.948;2024-01-11T01:44:43;96910.44;;;11.86
82636;BMP280;72317;37.280;-121.948;2024-01-11T01:47:10;96904.16;;;11.89
82636;BMP280;72317;37.280;-121.948;2024-01-11T01:49:37;96913.69;;;11.90
82636;BMP280;72317;37.280;-121.948;2024-01-11T01:52:05;96934.41;;;11.89
82636;BMP280;72317;37.280;-121.948;2024-01-11T01:54:32;96934.25;;;11.93
82636;BMP280;72317;37.280;-121.948;2024-01-11T01:56:59;96936.91;;;11.93
82636;BMP280;72317;37.280;-121.948;2024-01-11T01:59:27;96948.09;;;11.91
82636;BMP280;72317;37.280;-121.948;2024-01-11T02:01:54;96964.53;;;11.84
82636;BMP280;72317;37.280;-121.948;2024-01-11T02:04:20;96982.19;;;11.91
82636;BMP280;72317;37.280;-121.948;2024-01-11T02:06:49;97008.88;;;11.94
82636;BMP280;72317;37.280;-121.948;2024-01-11T02:09:17;97041.50;;;11.93
82636;BMP280;72317;37.280;-121.948;2024-01-11T02:11:44;97053.09;;;11.99
82636;BMP280;72317;37.280;-121.948;2024-01-11T02:14:11;97084.22;;;11.96
82636;BMP280;72317;37.280;-121.948;2024-01-11T02:16:37;97100.50;;;11.93
82636;BMP280;72317;37.280;-121.948;2024-01-11T02:19:05;97118.34;;;11.96
82636;BMP280;72317;37.280;-121.948;2024-01-11T02:21:33;97146.50;;;12.00
82636;BMP280;72317;37.280;-121.948;2024-01-11T02:24:09;97152.22;;;11.93
82636;BMP280;72317;37.280;-121.948;2024-01-11T02:26:36;97139.19;;;12.01
82636;BMP280;72317;37.280;-121.948;2024-01-11T02:29:02;97158.00;;;11.92
82636;BMP280;72317;37.280;-121.948;2024-01-11T02:31:28;97173.66;;;11.93
82636;BMP280;72317;37.280;-121.948;2024-01-11T02:33:55;97192.78;;;11.77
82636;BMP280;72317;37.280;-121.948;2024-01-11T02:36:22;97173.13;;;11.80
82636;BMP280;72317;37.280;-121.948;2024-01-11T02:38:49;97157.19;;;11.76
82636;BMP280;72317;37.280;-121.948;2024-01-11T02:41:16;97152.91;;;11.61
82636;BMP280;72317;37.280;-121.948;2024-01-11T02:43:47;97132.94;;;11.71
82636;BMP280;72317;37.280;-121.948;2024-01-11T02:46:15;97108.81;;;11.71
82636;BMP280;72317;37.280;-121.948;2024-01-11T02:48:42;97094.94;;;11.72
82636;BMP280;72317;37.280;-121.948;2024-01-11T02:51:08;97065.91;;;11.71
82636;BMP280;72317;37.280;-121.948;2024-01-11T02:53:34;97050.84;;;11.73
82636;BMP280;72317;37.280;-121.948;2024-01-11T02:56:01;97031.91;;;11.77
82636;BMP280;72317;37.280;-121.948;2024-01-11T02:58:27;97008.34;;;11.81
82636;BMP280;72317;37.280;-121.948;2024-01-11T03:00:54;97010.28;;;11.80
82636;BMP280;72317;37.280;-121.948;2024-01-11T03:03:20;97030.69;;;11.78
82636;BMP280;72317;37.280;-121.948;2024-01-11T03:05:46;97035.38;;;11.68
82636;BMP280;72317;37.280;-121.948;2024-01-11T03:08:12;97038.03;;;11.68
82636;BMP280;72317;37.280;-121.948;2024-01-11T03:10:39;97010.81;;;11.70
82636;BMP280;72317;37.280;-121.948;2024-01-11T03:13:06;96979.53;;;11.67
82636;BMP280;72317;37.280;-121.948;2024-01-11T03:15:33;96961.22;;;11.65
82636;BMP280;72317;37.280;-121.948;2024-01-11T03:17:59;96944.69;;;11.67
82636;BMP280;72317;37.280;-121.948;2024-01-11T03:20:25;96921.47;;;11.64
82636;BMP280;72317;37.280;-121.948;2024-01-11T03:22:52;96912.25;;;11.65
82636;BMP280;72317;37.280;-121.948;2024-01-11T03:25:18;96909.84;;;11.67
82636;BMP280;72317;37.280;-121.948;2024-01-11T03:27:45;96908.19;;;11.69
82636;BMP280;72317;37.280;-121.948;2024-01-11T03:30:11;96906.91;;;11.65
82636;BMP280;72317;37.280;-121.948;2024-01-11T03:32:38;96912.97;;;11.65
82636;BMP280;72317;37.280;-121.948;2024-01-11T03:35:08;96926.00;;;11.58
82636;BMP280;72317;37.280;-121.948;2024-01-11T03:37:34;96917.88;;;11.67
82636;BMP280;72317;37.280;-121.948;2024-01-11T03:40:02;96921.19;;;11.62
82636;BMP280;72317;37.280;-121.948;2024-01-11T03:42:29;96936.53;;;11.61
82636;BMP280;72317;37.280;-121.948;2024-01-11T03:44:55;96944.47;;;11.56
82636;BMP280;72317;37.280;-121.948;2024-01-11T03:47:21;96929.03;;;11.50
82636;BMP280;72317;37.280;-121.948;2024-01-11T03:49:48;96930.22;;;11.49
82636;BMP280;72317;37.280;-121.948;2024-01-11T03:52:14;96909.19;;;11.57
82636;BMP280;72317;37.280;-121.948;2024-01-11T03:54:40;96912.09;;;11.59
82636;BMP280;72317;37.280;-121.948;2024-01-11T03:57:06;96926.31;;;11.74
82636;BMP280;72317;37.280;-121.948;2024-01-11T03:59:32;96969.81;;;11.78
82636;BMP280;72317;37.280;-121.948;2024-01-11T04:01:59;97002.72;;;11.79
82636;BMP280;72317;37.280;-121.948;2024-01-11T04:04:25;97033.94;;;11.82
82636;BMP280;72317;37.280;-121.948;2024-01-11T04:06:52;97057.22;;;11.76
82636;BMP280;72317;37.280;-121.948;2024-01-11T04:09:18;97073.91;;;11.80
82636;BMP280;72317;37.280;-121.948;2024-01-11T04:11:46;97089.75;;;11.69
82636;BMP280;72317;37.280;-121.948;2024-01-11T04:14:12;97097.44;;;11.76
82636;BMP280;72317;37.280;-121.948;2024-01-11T04:16:42;97114.84;;;11.80
82636;BMP280;72317;37.280;-121.948;2024-01-11T04:19:09;97145.00;;;11.66
82636;BMP280;72317;37.280;-121.948;2024-01-11T04:21:35;97157.66;;;11.66
82636;BMP280;72317;37.280;-121.948;2024-01-11T04:24:04;97198.38;;;11.46
82636;BMP280;72317;37.280;-121.948;2024-01-11T04:26:34;97214.91;;;11.35
82636;BMP280;72317;37.280;-121.948;2024-01-11T04:29:00;97205.84;;;11.33
82636;BMP280;72317;37.280;-121.948;2024-01-11T04:31:27;97161.91;;;11.30
82636;BMP280;72317;37.280;-121.948;2024-01-11T04:33:53;97165.34;;;11.31
82636;BMP280;72317;37.280;-121.948;2024-01-11T04:36:19;97158.50;;;11.30
82636;BMP280;72317;37.280;-121.948;2024-01-11T04:38:45;97128.69;;;11.46
82636;BMP280;72317;37.280;-121.948;2024-01-11T04:41:13;97152.25;;;11.33
82636;BMP280;72317;37.280;-121.948;2024-01-11T04:43:40;97142.56;;;11.26
82636;BMP280;72317;37.280;-121.948;2024-01-11T04:46:19;97115.78;;;11.26
82636;BMP280;72317;37.280;-121.948;2024-01-11T04:48:46;97100.28;;;11.30
82636;BMP280;72317;37.280;-121.948;2024-01-11T04:51:13;97105.97;;;11.23
82636;BMP280;72317;37.280;-121.948;2024-01-11T04:53:40;97091.50;;;11.30
82636;BMP280;72317;37.280;-121.948;2024-01-11T04:56:07;97069.22;;;11.24
82636;BMP280;72317;37.280;-121.948;2024-01-11T04:58:34;97061.03;;;11.27
82636;BMP280;72317;37.280;-121.948;2024-01-11T05:01:01;97024.06;;;11.31
82636;BMP280;72317;37.280;-121.948;2024-01-11T05:03:27;97000.56;;;11.35
82636;BMP280;72317;37.280;-121.948;2024-01-11T05:05:54;97026.22;;;11.18
82636;BMP280;72317;37.280;-121.948;2024-01-11T05:08:20;97000.44;;;11.20
82636;BMP280;72317;37.280;-121.948;2024-01-11T05:10:46;97004.94;;;11.14
82636;BMP280;72317;37.280;-121.948;2024-01-11T05:13:12;97017.25;;;11.21
82636;BMP280;72317;37.280;-121.948;2024-01-11T05:15:38;97060.28;;;11.17
82636;BMP280;72317;37.280;-121.948;2024-01-11T05:18:04;97105.25;;;11.13
82636;BMP280;72317;37.280;-121.948;2024-01-11T05:20:30;97138.28;;;11.10
82636;BMP280;72317;37.280;-121.948;2024-01-11T05:22:57;97160.16;;;11.09
82636;BMP280;72317;37.280;-121.948;2024-01-11T05:25:23;97223.09;;;11.04
82636;BMP280;72317;37.280;-121.948;2024-01-11T05:27:49;97308.94;;;11.01
82636;BMP280;72317;37.280;-121.948;2024-01-11T05:30:15;97376.69;;;11.10
82636;BMP280;72317;37.280;-121.948;2024-01-11T05:32:41;97487.22;;;11.02
82636;BMP280;72317;37.280;-121.948;2024-01-11T05:35:08;97587.75;;;10.93
82636;BMP280;72317;37.280;-121.948;2024-01-11T05:37:36;97659.97;;;10.84
82636;BMP280;72317;37.280;-121.948;2024-01-11T05:40:02;97732.09;;;10.79
82636;BMP280;72317;37.280;-121.948;2024-01-11T05:42:29;97788.00;;;10.77
82636;BMP280;72317;37.280;-121.948;2024-01-11T05:44:55;97819.47;;;10.73
82636;BMP280;72317;37.280;-121.948;2024-01-11T05:47:21;97862.97;;;10.77
82636;BMP280;72317;37.280;-121.948;2024-01-11T05:49:47;97912.47;;;10.72
82636;BMP280;72317;37.280;-121.948;2024-01-11T05:52:13;97952.63;;;10.72
82636;BMP280;72317;37.280;-121.948;2024-01-11T05:54:39;97992.41;;;10.57
82636;BMP280;72317;37.280;-121.948;2024-01-11T05:57:06;98041.09;;;10.52
82636;BMP280;72317;37.280;-121.948;2024-01-11T05:59:33;98060.19;;;10.54
82636;BMP280;72317;37.280;-121.948;2024-01-11T06:01:59;98085.53;;;10.50
82636;BMP280;72317;37.280;-121.948;2024-01-11T06:04:27;98098.75;;;10.41
82636;BMP280;72317;37.280;-121.948;2024-01-11T06:06:53;98071.47;;;10.62
82636;BMP280;72317;37.280;-121.948;2024-01-11T06:09:19;98074.22;;;10.58
82636;BMP280;72317;37.280;-121.948;2024-01-11T06:11:45;98128.28;;;10.37
82636;BMP280;72317;37.280;-121.948;2024-01-11T06:14:11;98142.00;;;10.39
82636;BMP280;72317;37.280;-121.948;2024-01-11T06:16:37;98174.34;;;10.28
82636;BMP280;72317;37.280;-121.948;2024-01-11T06:19:04;98214.06;;;10.14
82636;BMP280;72317;37.280;-121.948;2024-01-11T06:21:30;98225.38;;;10.21
82636;BMP280;72317;37.280;-121.948;2024-01-11T06:23:56;98250.13;;;10.05
82636;BMP280;72317;37.280;-121.948;2024-01-11T06:26:22;98273.19;;;9.99
82636;BMP280;72317;37.280;-121.948;2024-01-11T06:28:48;98271.06;;;9.91
82636;BMP280;72317;37.280;-121.948;2024-01-11T06:31:15;98292.13;;;9.89
82636;BMP280;72317;37.280;-121.948;2024-01-11T06:33:41;98315.09;;;9.86
82636;BMP280;72317;37.280;-121.948;2024-01-11T06:36:08;98337.72;;;9.82
82636;BMP280;72317;37.280;-121.948;2024-01-11T06:38:34;98348.16;;;9.76
82636;BMP280;72317;37.280;-121.948;2024-01-11T06:41:00;98356.97;;;9.73
82636;BMP280;72317;37.280;-121.948;2024-01-11T06:43:26;98373.09;;;9.69
82636;BMP280;72317;37.280;-121.948;2024-01-11T06:45:53;98394.56;;;9.62
82636;BMP280;72317;37.280;-121.948;2024-01-11T06:48:19;98402.28;;;9.60
82636;BMP280;72317;37.280;-121.948;2024-01-11T06:50:45;98392.88;;;9.72
82636;BMP280;72317;37.280;-121.948;2024-01-11T06:53:11;98389.00;;;9.53
82636;BMP280;72317;37.280;-121.948;2024-01-11T06:55:38;98385.63;;;9.49
82636;BMP280;72317;37.280;-121.948;2024-01-11T06:58:06;98399.38;;;9.51
82636;BMP280;72317;37.280;-121.948;2024-01-11T07:00:32;98377.84;;;9.58
82636;BMP280;72317;37.280;-121.948;2024-01-11T07:02:58;98360.84;;;9.48
82636;BMP280;72317;37.280;-121.948;2024-01-11T07:05:25;98342.66;;;9.40
82636;BMP280;72317;37.280;-121.948;2024-01-11T07:07:51;98321.50;;;9.49
82636;BMP280;72317;37.280;-121.948;2024-01-11T07:10:17;98290.38;;;9.39
82636;BMP280;72317;37.280;-121.948;2024-01-11T07:12:43;98251.50;;;9.34
82636;BMP280;72317;37.280;-121.948;2024-01-11T07:15:11;98199.72;;;9.28
82636;BMP280;72317;37.280;-121.948;2024-01-11T07:17:38;98181.00;;;9.28
82636;BMP280;72317;37.280;-121.948;2024-01-11T07:20:04;98142.09;;;9.27
82636;BMP280;72317;37.280;-121.948;2024-01-11T07:22:47;98104.63;;;9.31
82636;BMP280;72317;37.280;-121.948;2024-01-11T07:25:14;98081.75;;;9.30
82636;BMP280;72317;37.280;-121.948;2024-01-11T07:27:40;98053.88;;;9.31
82636;BMP280;72317;37.280;-121.948;2024-01-11T07:30:07;98050.69;;;9.36
82636;BMP280;72317;37.280;-121.948;2024-01-11T07:32:34;98078.47;;;9.22
82636;BMP280;72317;37.280;-121.948;2024-01-11T07:35:00;98059.28;;;9.27
82636;BMP280;72317;37.280;-121.948;2024-01-11T07:37:26;98053.75;;;9.18
82636;BMP280;72317;37.280;-121.948;2024-01-11T07:39:53;98078.53;;;9.18
82636;BMP280;72317;37.280;-121.948;2024-01-11T07:42:19;98086.56;;;9.18
82636;BMP280;72317;37.280;-121.948;2024-01-11T07:44:45;98101.16;;;9.14
82636;BMP280;72317;37.280;-121.948;2024-01-11T07:47:12;98082.09;;;9.12
82636;BMP280;72317;37.280;-121.948;2024-01-11T07:49:38;98107.16;;;9.18
82636;BMP280;72317;37.280;-121.948;2024-01-11T07:52:04;98134.47;;;9.06
82636;BMP280;72317;37.280;-121.948;2024-01-11T07:54:30;98163.44;;;9.07
82636;BMP280;72317;37.280;-121.948;2024-01-11T07:56:57;98179.75;;;8.89
82636;BMP280;72317;37.280;-121.948;2024-01-11T07:59:23;98203.44;;;8.87
82636;BMP280;72317;37.280;-121.948;2024-01-11T08:01:50;98168.97;;;8.97
82636;BMP280;72317;37.280;-121.948;2024-01-11T08:04:18;98148.88;;;8.88
82636;BMP280;72317;37.280;-121.948;2024-01-11T08:06:44;98186.63;;;8.90
82636;BMP280;72317;37.280;-121.948;2024-01-11T08:09:11;98193.19;;;8.86
82636;BMP280;72317;37.280;-121.948;2024-01-11T08:11:39;98135.50;;;8.92
82636;BMP280;72317;37.280;-121.948;2024-01-11T08:14:07;98148.13;;;8.88
82636;BMP280;72317;37.280;-121.948;2024-01-11T08:16:33;98162.53;;;8.71
82636;BMP280;72317;37.280;-121.948;2024-01-11T08:18:59;98186.50;;;8.74
82636;BMP280;72317;37.280;-121.948;2024-01-11T08:21:26;98200.72;;;8.68
82636;BMP280;72317;37.280;-121.948;2024-01-11T08:23:53;98185.41;;;8.72
82636;BMP280;72317;37.280;-121.948;2024-01-11T08:26:20;98198.91;;;8.61
82636;BMP280;72317;37.280;-121.948;2024-01-11T08:28:48;98220.97;;;8.65
82636;BMP280;72317;37.280;-121.948;2024-01-11T08:31:14;98192.03;;;8.64
82636;BMP280;72317;37.280;-121.948;2024-01-11T08:33:40;98207.81;;;8.54
82636;BMP280;72317;37.280;-121.948;2024-01-11T08:36:06;98214.16;;;8.60
82636;BMP280;72317;37.280;-121.948;2024-01-11T08:38:32;98222.91;;;8.65
82636;BMP280;72317;37.280;-121.948;2024-01-11T08:40:59;98240.00;;;8.67
82636;BMP280;72317;37.280;-121.948;2024-01-11T08:43:28;98273.81;;;8.47
82636;BMP280;72317;37.280;-121.948;2024-01-11T08:45:54;98283.78;;;8.43
82636;BMP280;72317;37.280;-121.948;2024-01-11T08:48:20;98291.53;;;8.64
82636;BMP280;72317;37.280;-121.948;2024-01-11T08:50:47;98261.19;;;8.51
82636;BMP280;72317;37.280;-121.948;2024-01-11T08:53:13;98263.13;;;8.50
82636;BMP280;72317;37.280;-121.948;2024-01-11T08:55:39;98265.44;;;8.48
82636;BMP280;72317;37.280;-121.948;2024-01-11T08:58:05;98305.09;;;8.46
82636;BMP280;72317;37.280;-121.948;2024-01-11T09:00:32;98337.94;;;8.43
82636;BMP280;72317;37.280;-121.948;2024-01-11T09:02:58;98350.44;;;8.46
82636;BMP280;72317;37.280;-121.948;2024-01-11T09:05:25;98373.28;;;8.51
82636;BMP280;72317;37.280;-121.948;2024-01-11T09:07:51;98388.34;;;8.34
82636;BMP280;72317;37.280;-121.948;2024-01-11T09:10:17;98412.00;;;8.28
82636;BMP280;72317;37.280;-121.948;2024-01-11T09:12:43;98411.72;;;8.19
82636;BMP280;72317;37.280;-121.948;2024-01-11T09:15:10;98424.31;;;8.19
82636;BMP280;72317;37.280;-121.948;2024-01-11T09:17:36;98429.16;;;8.31
82636;BMP280;72317;37.280;-121.948;2024-01-11T09:20:03;98431.94;;;8.20
82636;BMP280;72317;37.280;-121.948;2024-01-11T09:22:29;98429.69;;;8.15
82636;BMP280;72317;37.280;-121.948;2024-01-11T09:24:55;98451.38;;;8.17
82636;BMP280;72317;37.280;-121.948;2024-01-11T09:27:22;98468.16;;;8.14
82636;BMP280;72317;37.280;-121.948;2024-01-11T09:29:48;98461.00;;;8.04
82636;BMP280;72317;37.280;-121.948;2024-01-11T09:32:14;98471.66;;;8.08
82636;BMP280;72317;37.280;-121.948;2024-01-11T09:34:40;98481.25;;;8.01
82636;BMP280;72317;37.280;-121.948;2024-01-11T09:37:07;98495.66;;;8.04
82636;BMP280;72317;37.280;-121.948;2024-01-11T09:39:33;98496.13;;;7.95
82636;BMP280;72317;37.280;-121.948;2024-01-11T09:42:06;98518.59;;;7.98
82636;BMP280;72317;37.280;-121.948;2024-01-11T09:44:33;98528.44;;;8.04
82636;BMP280;72317;37.280;-121.948;2024-01-11T09:47:01;98538.38;;;8.00
82636;BMP280;72317;37.280;-121.948;2024-01-11T09:49:30;98554.78;;;7.95
82636;BMP280;72317;37.280;-121.948;2024-01-11T09:51:57;98588.34;;;7.86
82636;BMP280;72317;37.280;-121.948;2024-01-11T09:54:23;98627.59;;;7.89
82636;BMP280;72317;37.280;-121.948;2024-01-11T09:56:51;98637.16;;;7.79
82636;BMP280;72317;37.280;-121.948;2024-01-11T09:59:40;98612.78;;;7.77
82636;BMP280;72317;37.280;-121.948;2024-01-11T10:02:10;98636.78;;;7.77
82636;BMP280;72317;37.280;-121.948;2024-01-11T10:04:37;98667.63;;;7.74
82636;BMP280;72317;37.280;-121.948;2024-01-11T10:07:04;98716.38;;;7.75
82636;BMP280;72317;37.280;-121.948;2024-01-11T10:09:32;98703.78;;;7.72
82636;BMP280;72317;37.280;-121.948;2024-01-11T10:11:58;98669.56;;;7.63
82636;BMP280;72317;37.280;-121.948;2024-01-11T10:14:25;98658.88;;;7.74
82636;BMP280;72317;37.280;-121.948;2024-01-11T10:16:51;98711.06;;;7.68
82636;BMP280;72317;37.280;-121.948;2024-01-11T10:19:19;98754.09;;;7.48
82636;BMP280;72317;37.280;-121.948;2024-01-11T10:21:47;98778.06;;;7.63
82636;BMP280;72317;37.280;-121.948;2024-01-11T10:24:20;98768.22;;;7.56
82636;BMP280;72317;37.280;-121.948;2024-01-11T10:26:47;98819.97;;;7.44
82636;BMP280;72317;37.280;-121.948;2024-01-11T10:29:13;98861.47;;;7.35
82636;BMP280;72317;37.280;-121.948;2024-01-11T10:31:40;98905.25;;;7.41
82636;BMP280;72317;37.280;-121.948;2024-01-11T10:34:06;98925.41;;;7.35
82636;BMP280;72317;37.280;-121.948;2024-01-11T10:36:32;98946.69;;;7.31
82636;BMP280;72317;37.280;-121.948;2024-01-11T10:39:03;98955.03;;;7.26
82636;BMP280;72317;37.280;-121.948;2024-01-11T10:41:40;98991.91;;;7.13
82636;BMP280;72317;37.280;-121.948;2024-01-11T10:44:26;98989.66;;;7.26
82636;BMP280;72317;37.280;-121.948;2024-01-11T10:46:56;98964.53;;;7.13
82636;BMP280;72317;37.280;-121.948;2024-01-11T10:49:23;99000.28;;;7.08
82636;BMP280;72317;37.280;-121.948;2024-01-11T10:52:12;99020.41;;;7.06
82636;BMP280;72317;37.280;-121.948;2024-01-11T10:54:40;99033.34;;;7.04
82636;BMP280;72317;37.280;-121.948;2024-01-11T10:57:09;99048.91;;;6.98
82636;BMP280;72317;37.280;-121.948;2024-01-11T10:59:37;99041.25;;;6.93
82636;BMP280;72317;37.280;-121.948;2024-01-11T11:02:07;99056.50;;;6.96
82636;BMP280;72317;37.280;-121.948;2024-01-11T11:04:38;99050.78;;;6.94
82636;BMP280;72317;37.280;-121.948;2024-01-11T11:07:05;99062.97;;;6.95
82636;BMP280;72317;37.280;-121.948;2024-01-11T11:09:35;99079.28;;;6.93
82636;BMP280;72317;37.280;-121.948;2024-01-11T11:12:01;99081.94;;;6.86
82636;BMP280;72317;37.280;-121.948;2024-01-11T11:14:30;99101.63;;;6.78
82636;BMP280;72317;37.280;-121.948;2024-01-11T11:16:58;99094.84;;;6.84
82636;BMP280;72317;37.280;-121.948;2024-01-11T11:19:24;99100.09;;;6.77
82636;BMP280;72317;37.280;-121.948;2024-01-11T11:21:51;99110.03;;;6.84
82636;BMP280;72317;37.280;-121.948;2024-01-11T11:24:17;99120.97;;;6.68
82636;BMP280;72317;37.280;-121.948;2024-01-11T11:26:44;99131.97;;;6.67
82636;BMP280;72317;37.280;-121.948;2024-01-11T11:29:10;99148.34;;;6.69
82636;BMP280;72317;37.280;-121.948;2024-01-11T11:31:37;99169.50;;;6.54
82636;BMP280;72317;37.280;-121.948;2024-01-11T11:34:05;99157.00;;;6.58
82636;BMP280;72317;37.280;-121.948;2024-01-11T11:36:33;99146.84;;;6.75
82636;BMP280;72317;37.280;-121.948;2024-01-11T11:39:01;99154.09;;;6.78
82636;BMP280;72317;37.280;-121.948;2024-01-11T11:41:30;99150.63;;;6.70
82636;BMP280;72317;37.280;-121.948;2024-01-11T11:44:04;99170.31;;;6.62
82636;BMP280;72317;37.280;-121.948;2024-01-11T11:46:32;99200.31;;;6.22
82636;BMP280;72317;37.280;-121.948;2024-01-11T11:48:58;99219.38;;;6.27
82636;BMP280;72317;37.280;-121.948;2024-01-11T11:51:25;99225.88;;;6.30
82636;BMP280;72317;37.280;-121.948;2024-01-11T11:53:52;99237.38;;;6.07
82636;BMP280;72317;37.280;-121.948;2024-01-11T11:56:20;99251.25;;;5.94
82636;BMP280;72317;37.280;-121.948;2024-01-11T11:58:47;99261.25;;;5.74
82636;BMP280;72317;37.280;-121.948;2024-01-11T12:01:15;99245.91;;;5.90
82636;BMP280;72317;37.280;-121.948;2024-01-11T12:03:43;99237.66;;;5.99
82636;BMP280;72317;37.280;-121.948;2024-01-11T12:06:17;99243.28;;;5.94
82636;BMP280;72317;37.280;-121.948;2024-01-11T12:08:45;99247.34;;;5.84
82636;BMP280;72317;37.280;-121.948;2024-01-11T12:11:19;99234.09;;;5.91
82636;BMP280;72317;37.280;-121.948;2024-01-11T12:13:49;99231.44;;;5.88
82636;BMP280;72317;37.280;-121.948;2024-01-11T12:16:15;99226.97;;;5.95
82636;BMP280;72317;37.280;-121.948;2024-01-11T12:18:41;99234.94;;;5.95
82636;BMP280;72317;37.280;-121.948;2024-01-11T12:21:08;99227.78;;;5.99
82636;BMP280;72317;37.280;-121.948;2024-01-11T12:23:36;99239.41;;;5.88
82636;BMP280;72317;37.280;-121.948;2024-01-11T12:26:03;99249.88;;;5.73
82636;BMP280;72317;37.280;-121.948;2024-01-11T12:28:31;99282.03;;;5.42
82636;BMP280;72317;37.280;-121.948;2024-01-11T12:30:58;99289.44;;;5.33
82636;BMP280;72317;37.280;-121.948;2024-01-11T12:33:26;99285.44;;;5.42
82636;BMP280;72317;37.280;-121.948;2024-01-11T12:35:52;99282.03;;;5.42
82636;BMP280;72317;37.280;-121.948;2024-01-11T12:38:18;99281.34;;;5.25
82636;BMP280;72317;37.280;-121.948;2024-01-11T12:41:06;99263.06;;;5.43
82636;BMP280;72317;37.280;-121.948;2024-01-11T12:43:33;99270.72;;;5.48
82636;BMP280;72317;37.280;-121.948;2024-01-11T12:46:00;99279.22;;;5.35
82636;BMP280;72317;37.280;-121.948;2024-01-11T12:48:26;99282.56;;;5.28
82636;BMP280;72317;37.280;-121.948;2024-01-11T12:50:52;99281.03;;;5.31
82636;BMP280;72317;37.280;-121.948;2024-01-11T12:53:19;99271.25;;;5.35
82636;BMP280;72317;37.280;-121.948;2024-01-11T12:56:05;99275.44;;;5.36
82636;BMP280;72317;37.280;-121.948;2024-01-11T12:58:39;99261.09;;;5.40
82636;BMP280;72317;37.280;-121.948;2024-01-11T13:01:09;99270.78;;;5.52
82636;BMP280;72317;37.280;-121.948;2024-01-11T13:03:37;99264.06;;;5.62
82636;BMP280;72317;37.280;-121.948;2024-01-11T13:06:04;99286.25;;;5.46
82636;BMP280;72317;37.280;-121.948;2024-01-11T13:08:34;99311.63;;;5.21
82636;BMP280;72317;37.280;-121.948;2024-01-11T13:11:08;99314.22;;;5.17
82636;BMP280;72317;37.280;-121.948;2024-01-11T13:13:35;99306.91;;;5.34
82636;BMP280;72317;37.280;-121.948;2024-01-11T13:16:04;99305.84;;;5.38
82636;BMP280;72317;37.280;-121.948;2024-01-11T13:18:37;99299.16;;;5.48
82636;BMP280;72317;37.280;-121.948;2024-01-11T13:21:03;99298.81;;;5.49
82636;BMP280;72317;37.280;-121.948;2024-01-11T13:23:29;99307.91;;;5.48
82636;BMP280;72317;37.280;-121.948;2024-01-11T13:25:56;99316.59;;;5.45
82636;BMP280;72317;37.280;-121.948;2024-01-11T13:28:22;99345.34;;;5.40
82636;BMP280;72317;37.280;-121.948;2024-01-11T13:30:49;99348.06;;;5.43
82636;BMP280;72317;37.280;-121.948;2024-01-11T13:33:15;99368.19;;;5.44
82636;BMP280;72317;37.280;-121.948;2024-01-11T13:35:43;99372.53;;;5.33
82636;BMP280;72317;37.280;-121.948;2024-01-11T13:38:09;99383.72;;;5.42
82636;BMP280;72317;37.280;-121.948;2024-01-11T13:40:36;99402.59;;;5.37
82636;BMP280;72317;37.280;-121.948;2024-01-11T13:43:02;99410.84;;;5.32
82636;BMP280;72317;37.280;-121.948;2024-01-11T13:45:28;99433.84;;;5.24
82636;BMP280;72317;37.280;-121.948;2024-01-11T13:47:58;99440.97;;;5.20
82636;BMP280;72317;37.280;-121.948;2024-01-11T13:50:25;99457.06;;;5.08
82636;BMP280;72317;37.280;-121.948;2024-01-11T13:52:52;99463.59;;;4.95
82636;BMP280;72317;37.280;-121.948;2024-01-11T13:55:18;99451.03;;;5.11
82636;BMP280;72317;37.280;-121.948;2024-01-11T13:57:47;99456.00;;;5.13
82636;BMP280;72317;37.280;-121.948;2024-01-11T14:00:14;99478.25;;;4.89
82636;BMP280;72317;37.280;-121.948;2024-01-11T14:02:40;99459.75;;;4.92
82636;BMP280;72317;37.280;-121.948;2024-01-11T14:05:07;99466.19;;;4.91